createdAt,value
2022-10-03T00:00:50.201Z,7.78
2022-10-03T00:01:50.200Z,7.78
2022-10-03T00:02:50.259Z,7.80
2022-10-03T00:03:50.213Z,7.75
2022-10-03T00:04:50.189Z,7.70
2022-10-03T00:05:50.181Z,7.72
2022-10-03T00:06:50.176Z,7.67
2022-10-03T00:07:50.231Z,7.78
2022-10-03T00:08:50.290Z,7.83
2022-10-03T00:09:50.360Z,7.91
2022-10-03T00:10:50.372Z,8.01
2022-10-03T00:11:50.332Z,8.01
2022-10-03T00:12:50.410Z,8.03
2022-10-03T00:13:50.382Z,8.02
2022-10-03T00:14:50.426Z,8.01
2022-10-03T00:15:50.479Z,7.87
2022-10-03T00:16:50.457Z,7.84
2022-10-03T00:17:50.499Z,7.78
2022-10-03T00:18:50.463Z,7.69
2022-10-03T00:19:50.522Z,7.64
2022-10-03T00:20:50.582Z,7.62
2022-10-03T00:21:50.587Z,7.67
2022-10-03T00:22:50.623Z,7.66
2022-10-03T00:23:50.655Z,7.59
2022-10-03T00:24:50.693Z,7.58
2022-10-03T00:25:50.743Z,7.64
2022-10-03T00:26:50.817Z,7.66
2022-10-03T00:27:50.857Z,7.64
2022-10-03T00:28:50.844Z,7.62
2022-10-03T00:29:50.842Z,7.59
2022-10-03T00:30:50.911Z,7.58
2022-10-03T00:31:51.025Z,7.53
2022-10-03T00:32:51.056Z,7.50
2022-10-03T00:33:51.053Z,7.44
2022-10-03T00:34:51.036Z,7.43
2022-10-03T00:35:51.038Z,7.43
2022-10-03T00:36:51.105Z,7.46
2022-10-03T00:37:51.105Z,7.53
2022-10-03T00:38:51.087Z,7.47
2022-10-03T00:39:51.076Z,7.51
2022-10-03T00:40:51.147Z,7.56
2022-10-03T00:41:51.137Z,7.61
2022-10-03T00:42:51.146Z,7.66
2022-10-03T00:43:51.178Z,7.72
2022-10-03T00:44:51.237Z,7.80
2022-10-03T00:45:51.300Z,7.80
2022-10-03T00:46:51.330Z,7.78
2022-10-03T00:47:51.307Z,7.75
2022-10-03T00:48:51.358Z,7.78
2022-10-03T00:49:51.368Z,7.78
2022-10-03T00:50:51.378Z,7.77
2022-10-03T00:51:51.411Z,7.72
2022-10-03T00:52:51.429Z,7.70
2022-10-03T00:53:51.484Z,7.78
2022-10-03T00:54:51.500Z,7.83
2022-10-03T00:55:51.530Z,7.84
2022-10-03T00:56:51.530Z,7.85
2022-10-03T00:57:51.577Z,7.84
2022-10-03T00:58:51.611Z,7.83
2022-10-03T00:59:51.643Z,7.78
2022-10-03T01:00:51.682Z,7.75
2022-10-03T01:01:51.775Z,7.72
2022-10-03T01:02:51.729Z,7.70
2022-10-03T01:03:51.764Z,7.69
2022-10-03T01:04:51.806Z,7.59
2022-10-03T01:05:51.842Z,7.62
2022-10-03T01:06:51.884Z,7.59
2022-10-03T01:07:51.920Z,7.58
2022-10-03T01:08:51.930Z,7.51
2022-10-03T01:09:51.983Z,7.50
2022-10-03T01:10:52.005Z,7.48
2022-10-03T01:11:52.068Z,7.50
2022-10-03T01:12:52.073Z,7.50
2022-10-03T01:13:52.045Z,7.53
2022-10-03T01:14:52.031Z,7.46
2022-10-03T01:15:52.089Z,7.44
2022-10-03T01:16:52.033Z,7.44
2022-10-03T01:17:52.025Z,7.43
2022-10-03T01:18:52.017Z,7.41
2022-10-03T01:19:52.014Z,7.32
2022-10-03T01:20:52.004Z,7.18
2022-10-03T01:21:51.995Z,7.19
2022-10-03T01:22:52.085Z,7.19
2022-10-03T01:23:52.095Z,7.15
2022-10-03T01:24:52.135Z,7.15
2022-10-03T01:25:52.175Z,7.18
2022-10-03T01:26:52.417Z,7.19
2022-10-03T01:27:52.239Z,7.23
2022-10-03T01:28:52.233Z,7.25
2022-10-03T01:29:52.294Z,7.29
2022-10-03T01:30:52.376Z,7.29
2022-10-03T01:31:52.427Z,7.25
2022-10-03T01:32:52.327Z,7.26
2022-10-03T01:33:52.397Z,7.26
2022-10-03T01:34:52.439Z,7.29
2022-10-03T01:35:52.480Z,7.26
2022-10-03T01:36:52.520Z,7.19
2022-10-03T01:37:52.574Z,7.19
2022-10-03T01:38:52.637Z,7.19
2022-10-03T01:39:52.783Z,7.18
2022-10-03T01:40:52.740Z,7.15
2022-10-03T01:41:52.783Z,7.19
2022-10-03T01:42:52.829Z,7.18
2022-10-03T01:43:52.893Z,7.14
2022-10-03T01:44:52.933Z,7.14
2022-10-03T01:45:52.968Z,7.10
2022-10-03T01:46:53.066Z,7.05
2022-10-03T01:47:53.030Z,6.97
2022-10-03T01:48:53.072Z,7.00
2022-10-03T01:49:53.109Z,7.11
2022-10-03T01:50:53.153Z,7.21
2022-10-03T01:51:53.209Z,7.26
2022-10-03T01:52:53.252Z,7.36
2022-10-03T01:53:53.291Z,7.36
2022-10-03T01:54:53.333Z,7.36
2022-10-03T01:55:53.382Z,7.36
2022-10-03T01:56:53.443Z,7.32
2022-10-03T01:57:53.500Z,7.37
2022-10-03T01:58:53.534Z,7.41
2022-10-03T01:59:53.574Z,7.39
2022-10-03T02:00:53.661Z,7.33
2022-10-03T02:01:53.733Z,7.32
2022-10-03T02:02:53.735Z,7.31
2022-10-03T02:03:53.774Z,7.31
2022-10-03T02:04:53.814Z,7.39
2022-10-03T02:05:53.855Z,7.56
2022-10-03T02:06:53.897Z,7.74
2022-10-03T02:07:53.945Z,7.83
2022-10-03T02:08:53.996Z,7.83
2022-10-03T02:09:54.044Z,7.81
2022-10-03T02:10:54.075Z,7.80
2022-10-03T02:11:54.118Z,7.80
2022-10-03T02:12:54.155Z,7.78
2022-10-03T02:13:54.205Z,7.74
2022-10-03T02:14:54.273Z,7.72
2022-10-03T02:15:54.376Z,7.67
2022-10-03T02:16:54.351Z,7.61
2022-10-03T02:17:54.386Z,7.56
2022-10-03T02:18:54.427Z,7.56
2022-10-03T02:19:54.476Z,7.55
2022-10-03T02:20:54.515Z,7.50
2022-10-03T02:21:54.558Z,7.47
2022-10-03T02:22:54.628Z,7.39
2022-10-03T02:23:54.589Z,7.32
2022-10-03T02:24:54.648Z,7.33
2022-10-03T02:25:54.697Z,7.28
2022-10-03T02:26:58.367Z,7.28
2022-10-03T02:27:54.810Z,7.37
2022-10-03T02:28:54.840Z,7.39
2022-10-03T02:29:54.877Z,7.40
2022-10-03T02:30:54.937Z,7.33
2022-10-03T02:31:55.003Z,7.31
2022-10-03T02:32:55.028Z,7.25
2022-10-03T02:33:55.081Z,7.21
2022-10-03T02:34:55.120Z,7.19
2022-10-03T02:35:55.170Z,7.22
2022-10-03T02:36:55.201Z,7.25
2022-10-03T02:37:55.250Z,7.23
2022-10-03T02:38:55.282Z,7.25
2022-10-03T02:39:55.324Z,7.26
2022-10-03T02:40:55.370Z,7.29
2022-10-03T02:41:55.402Z,7.32
2022-10-03T02:42:55.441Z,7.25
2022-10-03T02:43:55.495Z,7.32
2022-10-03T02:44:55.533Z,7.33
2022-10-03T02:45:55.595Z,7.36
2022-10-03T02:46:55.581Z,7.31
2022-10-03T02:48:08.408Z,7.28
2022-10-03T02:48:55.694Z,7.28
2022-10-03T02:49:55.723Z,7.32
2022-10-03T02:50:55.753Z,7.29
2022-10-03T02:51:55.793Z,7.31
2022-10-03T02:52:55.832Z,7.26
2022-10-03T02:53:55.883Z,7.25
2022-10-03T02:54:55.914Z,7.19
2022-10-03T02:55:55.961Z,7.14
2022-10-03T02:56:55.995Z,7.01
2022-10-03T02:57:56.026Z,6.95
2022-10-03T02:58:56.086Z,6.97
2022-10-03T02:59:56.114Z,7.05
2022-10-03T03:00:56.211Z,7.11
2022-10-03T03:01:56.201Z,7.14
2022-10-03T03:02:56.235Z,7.14
2022-10-03T03:03:56.304Z,7.11
2022-10-03T03:04:56.326Z,7.10
2022-10-03T03:05:56.367Z,7.07
2022-10-03T03:06:56.408Z,7.07
2022-10-03T03:07:56.456Z,7.11
2022-10-03T03:08:56.487Z,7.14
2022-10-03T03:09:56.529Z,7.15
2022-10-03T03:10:56.574Z,7.14
2022-10-03T03:11:56.597Z,7.15
2022-10-03T03:12:56.676Z,7.14
2022-10-03T03:13:56.698Z,7.15
2022-10-03T03:14:56.747Z,7.11
2022-10-03T03:15:56.834Z,7.13
2022-10-03T03:16:56.787Z,7.05
2022-10-03T03:17:56.828Z,7.03
2022-10-03T03:18:56.878Z,7.01
2022-10-03T03:19:56.909Z,6.97
2022-10-03T03:20:56.951Z,6.90
2022-10-03T03:21:56.980Z,6.86
2022-10-03T03:22:57.020Z,6.86
2022-10-03T03:23:57.047Z,6.82
2022-10-03T03:24:57.080Z,6.82
2022-10-03T03:25:57.108Z,6.80
2022-10-03T03:26:57.131Z,6.82
2022-10-03T03:27:57.179Z,6.80
2022-10-03T03:28:57.211Z,6.77
2022-10-03T03:29:57.251Z,6.74
2022-10-03T03:30:57.282Z,6.83
2022-10-03T03:31:57.376Z,6.92
2022-10-03T03:32:57.312Z,7.00
2022-10-03T03:33:57.354Z,6.96
2022-10-03T03:34:57.410Z,6.92
2022-10-03T03:35:57.443Z,6.82
2022-10-03T03:36:57.472Z,6.71
2022-10-03T03:37:57.502Z,6.65
2022-10-03T03:38:57.534Z,6.64
2022-10-03T03:39:57.583Z,6.67
2022-10-03T03:40:57.611Z,6.67
2022-10-03T03:41:57.642Z,6.64
2022-10-03T03:42:57.675Z,6.65
2022-10-03T03:43:57.694Z,6.64
2022-10-03T03:44:57.725Z,6.67
2022-10-03T03:45:57.863Z,6.64
2022-10-03T03:46:57.825Z,6.70
2022-10-03T03:47:57.854Z,6.71
2022-10-03T03:48:57.885Z,6.72
2022-10-03T03:49:57.925Z,6.75
2022-10-03T03:50:57.975Z,6.78
2022-10-03T03:51:58.006Z,6.67
2022-10-03T03:52:58.046Z,6.60
2022-10-03T03:53:58.074Z,6.59
2022-10-03T03:54:58.116Z,6.54
2022-10-03T03:55:58.168Z,6.50
2022-10-03T03:56:58.196Z,6.44
2022-10-03T03:57:58.227Z,6.56
2022-10-03T03:58:58.257Z,6.64
2022-10-03T03:59:58.277Z,6.68
2022-10-03T04:00:58.352Z,6.71
2022-10-03T04:01:58.413Z,6.68
2022-10-03T04:02:58.400Z,6.71
2022-10-03T04:03:58.430Z,6.82
2022-10-03T04:04:58.459Z,6.86
2022-10-03T04:05:58.498Z,6.93
2022-10-03T04:06:58.539Z,6.93
2022-10-03T04:07:58.569Z,6.93
2022-10-03T04:08:58.599Z,6.90
2022-10-03T04:09:58.628Z,6.89
2022-10-03T04:10:58.659Z,6.87
2022-10-03T04:11:58.689Z,6.87
2022-10-03T04:12:58.719Z,6.82
2022-10-03T04:13:58.766Z,6.82
2022-10-03T04:14:58.790Z,6.82
2022-10-03T04:15:58.823Z,6.83
2022-10-03T04:16:58.863Z,6.80
2022-10-03T04:17:58.900Z,6.82
2022-10-03T04:18:58.950Z,6.74
2022-10-03T04:19:58.972Z,6.68
2022-10-03T04:20:59.001Z,6.64
2022-10-03T04:21:59.032Z,6.60
2022-10-03T04:22:59.070Z,6.64
2022-10-03T04:23:59.092Z,6.59
2022-10-03T04:24:59.131Z,6.56
2022-10-03T04:25:59.173Z,6.59
2022-10-03T04:26:59.192Z,6.62
2022-10-03T04:27:59.293Z,6.65
2022-10-03T04:28:59.264Z,6.65
2022-10-03T04:29:59.305Z,6.62
2022-10-03T04:30:59.344Z,6.64
2022-10-03T04:31:59.428Z,6.60
2022-10-03T04:32:59.420Z,6.56
2022-10-03T04:33:59.466Z,6.53
2022-10-03T04:34:59.508Z,6.53
2022-10-03T04:35:59.542Z,6.53
2022-10-03T04:36:59.559Z,6.54
2022-10-03T04:37:59.595Z,6.54
2022-10-03T04:38:59.615Z,6.62
2022-10-03T04:39:59.656Z,6.56
2022-10-03T04:40:59.689Z,6.56
2022-10-03T04:41:59.725Z,6.53
2022-10-03T04:42:59.784Z,6.47
2022-10-03T04:43:59.816Z,6.43
2022-10-03T04:44:59.836Z,6.41
2022-10-03T04:45:59.884Z,6.39
2022-10-03T04:46:59.914Z,6.43
2022-10-03T04:47:59.955Z,6.44
2022-10-03T04:49:00.009Z,6.41
2022-10-03T04:50:00.039Z,6.36
2022-10-03T04:51:00.075Z,6.29
2022-10-03T04:52:00.117Z,6.28
2022-10-03T04:53:00.140Z,6.16
2022-10-03T04:54:00.187Z,6.12
2022-10-03T04:55:00.228Z,6.09
2022-10-03T04:56:00.273Z,6.05
2022-10-03T04:57:00.312Z,5.97
2022-10-03T04:58:04.193Z,5.95
2022-10-03T04:59:00.340Z,5.99
2022-10-03T05:00:00.399Z,6.05
2022-10-03T05:01:00.448Z,5.95
2022-10-03T05:02:00.476Z,5.94
2022-10-03T05:03:00.482Z,5.94
2022-10-03T05:04:00.523Z,5.94
2022-10-03T05:05:00.599Z,5.99
2022-10-03T05:06:00.627Z,6.09
2022-10-03T05:07:00.662Z,6.13
2022-10-03T05:08:00.690Z,6.20
2022-10-03T05:09:00.700Z,6.25
2022-10-03T05:10:05.048Z,6.28
2022-10-03T05:11:00.752Z,6.34
2022-10-03T05:12:00.811Z,6.38
2022-10-03T05:13:00.859Z,6.38
2022-10-03T05:14:00.921Z,6.31
2022-10-03T05:15:01.002Z,6.25
2022-10-03T05:16:00.983Z,6.19
2022-10-03T05:17:01.053Z,6.20
2022-10-03T05:18:01.063Z,6.19
2022-10-03T05:19:01.072Z,6.20
2022-10-03T05:20:01.081Z,6.26
2022-10-03T05:21:01.139Z,6.26
2022-10-03T05:22:01.183Z,6.25
2022-10-03T05:23:01.213Z,6.28
2022-10-03T05:24:01.234Z,6.34
2022-10-03T05:25:01.314Z,6.43
2022-10-03T05:26:23.208Z,6.47
2022-10-03T05:27:01.324Z,6.47
2022-10-03T05:28:01.423Z,6.47
2022-10-03T05:29:01.355Z,6.53
2022-10-03T05:30:01.375Z,6.64
2022-10-03T05:31:01.445Z,6.65
2022-10-03T05:32:01.559Z,6.68
2022-10-03T05:33:06.300Z,6.71
2022-10-03T05:34:01.565Z,6.72
2022-10-03T05:35:01.606Z,6.85
2022-10-03T05:36:01.637Z,6.93
2022-10-03T05:37:01.667Z,7.03
2022-10-03T05:38:01.699Z,7.05
2022-10-03T05:39:01.716Z,7.11
2022-10-03T05:40:01.777Z,7.15
2022-10-03T05:41:01.767Z,7.22
2022-10-03T05:42:21.441Z,7.29
2022-10-03T05:43:01.820Z,7.40
2022-10-03T05:44:01.966Z,7.43
2022-10-03T05:45:01.869Z,7.50
2022-10-03T05:46:01.899Z,7.56
2022-10-03T05:47:01.868Z,7.59
2022-10-03T05:48:01.888Z,7.62
2022-10-03T05:49:01.947Z,7.66
2022-10-03T05:50:03.766Z,7.66
2022-10-03T05:51:01.950Z,7.67
2022-10-03T05:52:02.049Z,7.69
2022-10-03T05:53:02.053Z,7.72
2022-10-03T05:54:02.060Z,7.74
2022-10-03T05:55:02.109Z,7.75
2022-10-03T05:56:02.140Z,7.77
2022-10-03T05:57:02.180Z,7.78
2022-10-03T05:58:02.224Z,7.81
2022-10-03T05:59:02.268Z,7.83
2022-10-03T06:00:02.272Z,7.83
2022-10-03T06:01:02.348Z,7.84
2022-10-03T06:02:02.446Z,7.87
2022-10-03T06:03:02.525Z,7.91
2022-10-03T06:04:05.919Z,7.95
2022-10-03T06:05:02.451Z,7.99
2022-10-03T06:06:02.492Z,8.03
2022-10-03T06:07:02.561Z,8.06
2022-10-03T06:08:02.621Z,8.08
2022-10-03T06:09:02.623Z,8.11
2022-10-03T06:10:02.672Z,8.13
2022-10-03T06:11:02.682Z,8.16
2022-10-03T06:12:02.704Z,8.14
2022-10-03T06:13:02.763Z,8.17
2022-10-03T06:14:02.774Z,8.18
2022-10-03T06:15:02.757Z,8.17
2022-10-03T06:16:02.860Z,8.21
2022-10-03T06:17:02.885Z,8.21
2022-10-03T06:18:02.906Z,8.24
2022-10-03T06:19:02.905Z,8.26
2022-10-03T06:20:02.945Z,8.28
2022-10-03T06:21:02.925Z,8.31
2022-10-03T06:22:02.936Z,8.34
2022-10-03T06:23:05.927Z,8.35
2022-10-03T06:24:02.966Z,8.38
2022-10-03T06:25:02.974Z,8.39
2022-10-03T06:26:02.947Z,8.42
2022-10-03T06:27:02.937Z,8.44
2022-10-03T06:28:02.994Z,8.44
2022-10-03T06:29:02.990Z,8.45
2022-10-03T06:30:03.031Z,8.50
2022-10-03T06:31:03.062Z,8.53
2022-10-03T06:32:03.081Z,8.54
2022-10-03T06:33:03.151Z,8.56
2022-10-03T06:34:03.173Z,8.59
2022-10-03T06:35:03.241Z,8.63
2022-10-03T06:36:03.229Z,8.68
2022-10-03T06:37:03.236Z,8.71
2022-10-03T06:38:03.269Z,8.72
2022-10-03T06:39:03.328Z,8.78
2022-10-03T06:40:07.573Z,8.78
2022-10-03T06:41:03.467Z,8.81
2022-10-03T06:42:03.380Z,8.86
2022-10-03T06:43:03.411Z,8.89
2022-10-03T06:44:03.444Z,8.92
2022-10-03T06:45:03.497Z,8.93
2022-10-03T06:46:03.558Z,8.95
2022-10-03T06:47:03.582Z,8.97
2022-10-03T06:48:03.633Z,9.00
2022-10-03T06:49:03.723Z,9.02
2022-10-03T06:50:03.763Z,9.03
2022-10-03T06:51:03.824Z,9.09
2022-10-03T06:52:03.872Z,9.09
2022-10-03T06:53:03.874Z,9.12
2022-10-03T06:54:03.914Z,9.13
2022-10-03T06:55:03.903Z,9.16
2022-10-03T06:56:03.954Z,9.21
2022-10-03T06:57:04.048Z,9.21
2022-10-03T06:58:04.015Z,9.26
2022-10-03T06:59:04.058Z,9.30
2022-10-03T07:00:04.044Z,9.36
2022-10-03T07:01:04.191Z,9.40
2022-10-03T07:02:04.232Z,9.45
2022-10-03T07:03:04.136Z,9.47
2022-10-03T07:04:04.207Z,9.48
2022-10-03T07:05:04.235Z,9.52
2022-10-03T07:06:04.281Z,9.58
2022-10-03T07:07:04.255Z,9.62
2022-10-03T07:08:04.288Z,9.63
2022-10-03T07:09:04.288Z,9.69
2022-10-03T07:10:04.290Z,9.72
2022-10-03T07:11:04.367Z,9.76
2022-10-03T07:12:04.378Z,9.77
2022-10-03T07:13:04.450Z,9.84
2022-10-03T07:14:04.459Z,9.85
2022-10-03T07:15:04.480Z,9.91
2022-10-03T07:16:25.433Z,9.95
2022-10-03T07:17:04.612Z,9.95
2022-10-03T07:18:04.542Z,9.99
2022-10-03T07:19:04.550Z,9.94
2022-10-03T07:20:04.561Z,10.00
2022-10-03T07:21:04.601Z,10.06
2022-10-03T07:22:04.685Z,10.09
2022-10-03T07:23:04.691Z,10.15
2022-10-03T07:24:04.752Z,10.13
2022-10-03T07:25:04.765Z,10.10
2022-10-03T07:26:04.832Z,10.12
2022-10-03T07:27:04.891Z,10.12
2022-10-03T07:28:04.977Z,10.17
2022-10-03T07:29:04.902Z,10.20
2022-10-03T07:30:04.971Z,10.28
2022-10-03T07:31:05.008Z,10.31
2022-10-03T07:32:05.033Z,10.34
2022-10-03T07:33:05.014Z,10.39
2022-10-03T07:34:05.034Z,10.34
2022-10-03T07:35:05.714Z,10.39
2022-10-03T07:36:05.115Z,10.48
2022-10-03T07:37:05.133Z,10.49
2022-10-03T07:38:05.116Z,10.57
2022-10-03T07:39:05.177Z,10.55
2022-10-03T07:40:05.236Z,10.51
2022-10-03T07:41:05.236Z,10.61
2022-10-03T07:42:05.316Z,10.64
2022-10-03T07:43:05.306Z,10.67
2022-10-03T07:44:05.277Z,10.71
2022-10-03T07:45:05.346Z,10.75
2022-10-03T07:46:05.450Z,10.77
2022-10-03T07:47:05.390Z,10.86
2022-10-03T07:48:05.417Z,10.92
2022-10-03T07:49:05.389Z,10.97
2022-10-03T07:50:05.438Z,11.00
2022-10-03T07:51:05.441Z,11.01
2022-10-03T07:52:05.479Z,11.08
2022-10-03T07:53:05.490Z,11.10
2022-10-03T07:54:05.470Z,11.12
2022-10-03T07:55:05.494Z,11.15
2022-10-03T07:56:09.388Z,11.13
2022-10-03T07:57:05.610Z,11.22
2022-10-03T07:58:05.631Z,11.31
2022-10-03T07:59:05.633Z,11.38
2022-10-03T08:00:05.651Z,11.45
2022-10-03T08:01:05.681Z,11.53
2022-10-03T08:02:05.727Z,11.35
2022-10-03T08:03:05.829Z,11.31
2022-10-03T08:04:05.775Z,11.33
2022-10-03T08:05:05.814Z,11.34
2022-10-03T08:06:05.863Z,11.44
2022-10-03T08:07:05.925Z,11.48
2022-10-03T08:08:05.975Z,11.56
2022-10-03T08:09:06.014Z,11.55
2022-10-03T08:10:06.063Z,11.59
2022-10-03T08:11:06.108Z,11.56
2022-10-03T08:12:06.172Z,11.53
2022-10-03T08:13:06.215Z,11.56
2022-10-03T08:14:06.255Z,11.60
2022-10-03T08:15:06.371Z,11.56
2022-10-03T08:16:06.367Z,11.63
2022-10-03T08:17:06.362Z,11.73
2022-10-03T08:18:06.419Z,11.74
2022-10-03T08:19:10.475Z,11.71
2022-10-03T08:20:06.467Z,11.78
2022-10-03T08:21:06.528Z,11.89
2022-10-03T08:22:06.519Z,11.97
2022-10-03T08:23:06.579Z,12.11
2022-10-03T08:24:06.608Z,12.23
2022-10-03T08:25:06.680Z,12.28
2022-10-03T08:26:06.686Z,12.20
2022-10-03T08:27:06.691Z,12.30
2022-10-03T08:28:06.724Z,12.28
2022-10-03T08:29:06.707Z,12.35
2022-10-03T08:30:06.761Z,12.37
2022-10-03T08:31:06.876Z,12.55
2022-10-03T08:32:06.870Z,12.68
2022-10-03T08:33:06.850Z,12.63
2022-10-03T08:34:06.907Z,12.61
2022-10-03T08:35:06.932Z,12.57
2022-10-03T08:36:06.924Z,12.65
2022-10-03T08:37:06.994Z,12.75
2022-10-03T08:38:07.073Z,12.93
2022-10-03T08:39:07.043Z,13.01
2022-10-03T08:40:07.115Z,13.08
2022-10-03T08:41:07.094Z,12.93
2022-10-03T08:42:07.145Z,12.90
2022-10-03T08:43:07.229Z,12.86
2022-10-03T08:44:07.275Z,12.93
2022-10-03T08:45:07.285Z,12.87
2022-10-03T08:46:07.365Z,12.90
2022-10-03T08:47:07.318Z,12.90
2022-10-03T08:48:07.383Z,12.93
2022-10-03T08:49:07.447Z,12.98
2022-10-03T08:50:07.527Z,13.16
2022-10-03T08:51:07.507Z,13.27
2022-10-03T08:52:07.560Z,13.45
2022-10-03T08:53:07.608Z,13.52
2022-10-03T08:54:07.588Z,13.65
2022-10-03T08:55:07.657Z,13.75
2022-10-03T08:56:07.650Z,13.95
2022-10-03T08:57:07.710Z,13.79
2022-10-03T08:58:07.771Z,13.67
2022-10-03T08:59:07.766Z,13.57
2022-10-03T09:00:07.800Z,13.62
2022-10-03T09:01:07.894Z,13.89
2022-10-03T09:02:07.915Z,14.16
2022-10-03T09:03:33.467Z,14.19
2022-10-03T09:04:07.895Z,15.45
2022-10-03T09:05:07.942Z,14.99
2022-10-03T09:06:08.003Z,14.73
2022-10-03T09:07:23.664Z,14.99
2022-10-03T09:08:08.072Z,14.99
2022-10-03T09:09:08.074Z,15.88
2022-10-03T09:10:08.115Z,15.59
2022-10-03T09:11:08.095Z,15.22
2022-10-03T09:12:08.096Z,14.99
2022-10-03T09:13:08.146Z,14.86
2022-10-03T09:14:08.215Z,14.63
2022-10-03T09:15:08.267Z,14.99
2022-10-03T09:16:08.268Z,15.22
2022-10-03T09:17:08.219Z,15.45
2022-10-03T09:18:08.259Z,16.08
2022-10-03T09:19:08.268Z,17.31
2022-10-03T09:20:08.290Z,17.53
2022-10-03T09:25:26.242Z,17.84
2022-10-03T09:26:26.233Z,18.18
2022-10-03T09:27:26.303Z,18.33
2022-10-03T09:28:26.323Z,18.73
2022-10-03T09:29:26.284Z,18.79
2022-10-03T09:30:26.364Z,17.91
2022-10-03T09:31:26.437Z,17.57
2022-10-03T09:32:26.395Z,17.39
2022-10-03T09:33:26.434Z,17.42
2022-10-03T09:34:26.437Z,18.26
2022-10-03T09:35:26.427Z,18.33
2022-10-03T09:36:26.438Z,18.55
2022-10-03T09:37:26.459Z,19.19
2022-10-03T09:38:26.459Z,19.87
2022-10-03T09:39:26.512Z,19.11
2022-10-03T09:40:26.539Z,18.74
2022-10-03T09:41:26.542Z,18.48
2022-10-03T09:42:26.601Z,18.33
2022-10-03T09:43:26.601Z,19.17
2022-10-03T09:44:26.601Z,19.24
2022-10-03T09:45:26.612Z,18.63
2022-10-03T09:46:26.742Z,18.08
2022-10-03T09:47:26.682Z,17.93
2022-10-03T09:48:26.793Z,18.09
2022-10-03T09:49:26.723Z,18.43
2022-10-03T09:50:26.724Z,18.48
2022-10-03T09:51:26.757Z,18.24
2022-10-03T09:52:26.747Z,18.30
2022-10-03T09:53:26.754Z,18.53
2022-10-03T09:54:26.806Z,18.73
2022-10-03T09:55:26.796Z,18.46
2022-10-03T09:56:26.819Z,19.32
2022-10-03T09:57:26.821Z,19.87
2022-10-03T09:58:26.886Z,19.47
2022-10-03T09:59:26.937Z,18.85
2022-10-03T10:00:27.000Z,17.65
2022-10-03T10:01:27.045Z,17.22
2022-10-03T10:02:26.989Z,17.16
2022-10-03T10:03:27.052Z,17.35
2022-10-03T10:04:43.787Z,17.05
2022-10-03T10:05:27.122Z,16.69
2022-10-03T10:06:27.171Z,16.69
2022-10-03T10:07:27.222Z,16.59
2022-10-03T10:08:27.283Z,16.34
2022-10-03T10:09:27.552Z,16.08
2022-10-03T10:10:27.373Z,16.06
2022-10-03T10:11:30.565Z,16.26
2022-10-03T10:12:27.443Z,16.32
2022-10-03T10:13:36.234Z,16.44
2022-10-03T10:14:27.468Z,16.54
2022-10-03T10:15:27.534Z,16.41
2022-10-03T10:16:27.628Z,16.51
2022-10-03T10:17:27.626Z,16.54
2022-10-03T10:18:27.716Z,16.43
2022-10-03T10:19:27.670Z,16.22
2022-10-03T10:20:27.687Z,16.28
2022-10-03T10:21:27.738Z,16.26
2022-10-03T10:22:27.786Z,16.18
2022-10-03T10:23:27.849Z,16.24
2022-10-03T10:24:27.888Z,16.32
2022-10-03T10:25:27.930Z,16.32
2022-10-03T10:26:29.546Z,16.36
2022-10-03T10:27:28.020Z,16.51
2022-10-03T10:28:28.181Z,16.76
2022-10-03T10:29:28.061Z,16.61
2022-10-03T10:30:28.111Z,16.54
2022-10-03T10:31:28.227Z,16.57
2022-10-03T10:32:28.172Z,16.65
2022-10-03T10:33:28.232Z,16.68
2022-10-03T10:34:28.281Z,16.69
2022-10-03T10:35:28.353Z,16.65
2022-10-03T10:36:28.423Z,16.44
2022-10-03T10:37:28.473Z,16.36
2022-10-03T10:38:28.545Z,16.34
2022-10-03T10:39:28.595Z,16.37
2022-10-03T10:40:28.648Z,16.46
2022-10-03T10:41:28.706Z,16.44
2022-10-03T10:42:28.737Z,16.46
2022-10-03T10:43:28.777Z,16.44
2022-10-03T10:44:28.868Z,16.39
2022-10-03T10:45:28.903Z,16.36
2022-10-03T10:46:28.973Z,16.44
2022-10-03T10:47:28.958Z,16.77
2022-10-03T10:48:29.027Z,17.12
2022-10-03T10:49:29.139Z,17.59
2022-10-03T10:50:29.051Z,18.33
2022-10-03T10:51:29.089Z,18.61
2022-10-03T10:52:29.097Z,18.92
2022-10-03T10:53:29.128Z,18.83
2022-10-03T10:54:29.103Z,18.81
2022-10-03T10:55:29.175Z,18.61
2022-10-03T10:56:29.231Z,18.53
2022-10-03T10:57:29.254Z,18.52
2022-10-03T10:58:29.251Z,18.55
2022-10-03T10:59:29.273Z,18.57
2022-10-03T11:00:29.308Z,18.67
2022-10-03T11:01:29.316Z,19.19
2022-10-03T11:02:29.304Z,19.26
2022-10-03T11:03:29.315Z,18.94
2022-10-03T11:04:29.411Z,19.17
2022-10-03T11:05:29.413Z,19.66
2022-10-03T11:06:29.408Z,19.60
2022-10-03T11:07:29.387Z,19.01
2022-10-03T11:08:29.423Z,18.64
2022-10-03T11:09:29.468Z,18.41
2022-10-03T11:10:29.537Z,18.19
2022-10-03T11:11:29.607Z,18.12
2022-10-03T11:12:29.666Z,18.11
2022-10-03T11:13:34.833Z,17.87
2022-10-03T11:14:29.749Z,17.52
2022-10-03T11:15:29.807Z,17.01
2022-10-03T11:16:29.902Z,16.86
2022-10-03T11:17:29.851Z,16.77
2022-10-03T11:18:29.861Z,16.79
2022-10-03T11:19:29.914Z,17.05
2022-10-03T11:20:29.962Z,17.31
2022-10-03T11:21:30.002Z,17.20
2022-10-03T11:22:29.973Z,17.09
2022-10-03T11:23:30.045Z,17.09
2022-10-03T11:24:30.083Z,16.77
2022-10-03T11:25:30.144Z,16.80
2022-10-03T11:26:30.174Z,16.82
2022-10-03T11:27:30.233Z,17.04
2022-10-03T11:28:30.277Z,17.65
2022-10-03T11:29:30.238Z,17.65
2022-10-03T11:30:30.276Z,17.27
2022-10-03T11:31:30.364Z,17.10
2022-10-03T11:32:30.297Z,16.86
2022-10-03T11:33:30.328Z,16.84
2022-10-03T11:34:30.396Z,16.76
2022-10-03T11:35:30.437Z,16.64
2022-10-03T11:36:30.499Z,16.54
2022-10-03T11:37:30.548Z,16.46
2022-10-03T11:38:30.559Z,16.46
2022-10-03T11:39:30.620Z,16.50
2022-10-03T11:40:30.629Z,16.55
2022-10-03T11:41:30.661Z,16.51
2022-10-03T11:42:30.681Z,16.49
2022-10-03T11:43:30.741Z,16.39
2022-10-03T11:44:30.818Z,16.36
2022-10-03T11:45:30.902Z,16.31
2022-10-03T11:46:30.932Z,16.25
2022-10-03T11:47:30.914Z,16.21
2022-10-03T11:48:31.000Z,16.12
2022-10-03T11:49:31.043Z,16.09
2022-10-03T11:50:31.076Z,16.10
2022-10-03T11:51:31.063Z,16.25
2022-10-03T11:52:31.055Z,16.39
2022-10-03T11:53:31.105Z,16.51
2022-10-03T11:54:32.408Z,16.69
2022-10-03T11:55:31.115Z,16.59
2022-10-03T11:56:31.157Z,16.66
2022-10-03T11:57:31.176Z,16.84
2022-10-03T11:58:31.237Z,16.74
2022-10-03T11:59:31.269Z,16.51
2022-10-03T12:00:31.277Z,16.57
2022-10-03T12:01:31.348Z,16.58
2022-10-03T12:02:31.394Z,16.54
2022-10-03T12:03:31.503Z,16.57
2022-10-03T12:04:31.451Z,16.72
2022-10-03T12:05:31.489Z,16.82
2022-10-03T12:06:31.499Z,16.74
2022-10-03T12:07:31.491Z,16.76
2022-10-03T12:08:31.501Z,16.61
2022-10-03T12:09:31.645Z,16.57
2022-10-03T12:10:31.599Z,16.46
2022-10-03T12:11:31.662Z,16.59
2022-10-03T12:12:31.704Z,16.84
2022-10-03T12:13:31.783Z,17.05
2022-10-03T12:14:31.795Z,17.27
2022-10-03T12:15:31.864Z,17.28
2022-10-03T12:16:31.991Z,17.23
2022-10-03T12:17:31.973Z,17.12
2022-10-03T12:18:32.035Z,17.14
2022-10-03T12:19:32.064Z,17.04
2022-10-03T12:20:32.099Z,16.91
2022-10-03T12:21:32.085Z,16.76
2022-10-03T12:22:32.166Z,16.82
2022-10-03T12:23:32.166Z,16.98
2022-10-03T12:24:32.208Z,17.02
2022-10-03T12:25:32.226Z,17.28
2022-10-03T12:26:32.248Z,17.50
2022-10-03T12:27:32.307Z,17.68
2022-10-03T12:28:32.372Z,17.50
2022-10-03T12:29:32.349Z,17.68
2022-10-03T12:30:32.408Z,17.54
2022-10-03T12:31:32.530Z,17.47
2022-10-03T12:32:32.545Z,17.66
2022-10-03T12:33:32.595Z,17.97
2022-10-03T12:34:32.581Z,18.02
2022-10-03T12:35:32.611Z,18.24
2022-10-03T12:36:32.705Z,18.09
2022-10-03T12:37:32.674Z,18.06
2022-10-03T12:38:32.673Z,18.30
2022-10-03T12:39:32.702Z,18.37
2022-10-03T12:40:32.752Z,18.23
2022-10-03T12:41:32.721Z,17.86
2022-10-03T12:42:32.724Z,17.68
2022-10-03T12:43:32.814Z,17.44
2022-10-03T12:44:32.814Z,17.30
2022-10-03T12:45:32.927Z,17.20
2022-10-03T12:46:32.954Z,17.13
2022-10-03T12:47:54.445Z,17.05
2022-10-03T12:48:32.904Z,16.98
2022-10-03T12:49:32.956Z,16.86
2022-10-03T12:50:33.027Z,16.86
2022-10-03T12:51:33.037Z,16.92
2022-10-03T12:52:33.078Z,16.95
2022-10-03T12:53:33.157Z,16.84
2022-10-03T12:54:33.198Z,16.73
2022-10-03T12:55:33.230Z,16.84
2022-10-03T12:56:33.249Z,16.84
2022-10-03T12:57:33.240Z,16.95
2022-10-03T12:58:33.284Z,17.16
2022-10-03T12:59:33.270Z,17.13
2022-10-03T13:00:33.300Z,17.27
2022-10-03T13:01:33.412Z,17.73
2022-10-03T13:02:33.504Z,17.49
2022-10-03T13:03:33.445Z,17.34
2022-10-03T13:04:33.441Z,17.69
2022-10-03T13:05:33.493Z,17.42
2022-10-03T13:07:01.256Z,17.38
2022-10-03T13:07:33.513Z,17.49
2022-10-03T13:08:33.524Z,17.71
2022-10-03T13:09:33.553Z,17.91
2022-10-03T13:10:33.552Z,17.94
2022-10-03T13:11:33.607Z,18.52